LFST/SXB METAR and TAF weather

Enter ICAO airport designator
Station Type Date Time Source
LFST METAR 2021/04/13 22:30 UTC NOAA

LFST 132230Z AUTO 35005KT CAVOK 02/M02 Q1030 NOSIG


Station Type Date Time Source
LFST Decoded METAR 2021/04/13 22:30 UTC NOAA

Strasbourg, France (LFST) 48-33N 007-38E 154M
Apr 13, 2021 - 06:30 PM EDT / 2021.04.13 2230 UTC
Wind: from the N (350 degrees) at 6 MPH (5 KT):0
Visibility: greater than 7 mile(s):0
Temperature: 35 F (2 C)
Windchill: 30 F (-1 C):1
Dew Point: 28 F (-2 C)
Relative Humidity: 74%
Pressure (altimeter): 30.42 in. Hg (1030 hPa)
ob: LFST 132230Z AUTO 35005KT CAVOK 02/M02 Q1030 NOSIG
cycle: 22

Station Type Date Time Source
LFST TAF 2021/04/13 18:21 UTC NOAA

TAF LFST 131700Z 1318/1418 03006KT CAVOK PROB30
TEMPO 1412/1418 -SHRA FEW045TCU

Example: see airport list